Airfield :
LOGIN :

Register | Disclaimer

   EN    FR    IT 

 










Legend :    VFR   Marginal VFR   IFR   Intensive IFR   Very Intensive IFR
Visi :
Ceiling :
>= 8 km
>= 3000ft
5 to 8 km
1000 to 3000 ft
1500m to 5 km
500 to 1000 ft
800 to 1500m
200 to 500 ft
< 800m
< 200 ft
Symbols :   Thunderstorms  Fog  Heavy snow  Heavy precipitations  Wind > 20 kt
SIGMETs :     Misc.  Thunderstorms  Icing  Turbulence  Mountain Waves  Volcanic Ashes







- Airport Elevation : 59 ft
- IATA code : TSF


LIPH - Treviso

CURRENT METAR :
  • 230520Z 05004KT 5000 BR FEW006 BKN010 16/15 Q1016

EXPIRED METARs :
  • 230450Z AUTO 03003KT 360V060 6000 OVC003/// 16/15 Q1016
  • 230420Z AUTO 04003KT 360V060 2600 BR OVC002/// 16/16 Q1016
  • 230350Z AUTO 01003KT 340V050 2600 BR OVC002/// 16/15 Q1016
  • 230320Z AUTO 35003KT 2400 BR BKN002/// BKN140/// 16/15 Q1015
  • 230250Z AUTO VRB02KT 3300 BR BKN130/// 16/15 Q1015

TAF TAF LIPH
Valid from the 23 at 06:00 until the 24 at 06:00 UTC


230500Z 2306/2406 VRB05KT 9999 SCT040
TEMPO 2312/2318 SHRA
TEMPO 2400/2406 3000 BR
No reported NOTAMs for that airfield.



MET'MAP, your aeronautical weather chart ! - Copyright ORBIFLY December 2007 - Disclaimer

ORBIFLY MET'MAP TEAM :

Programming & Development : Alexandra Zaïnal
Concept & Development : Baudouin d'Aumeries
Co-Development & Prog : Marc-Olivier Méhu
Technical & hardware support : Manuel Goepfert

Contact : metmap@orbifly.com




SOURCES & CREDITS :

   NOAA